Time;durP1;ratioP1;P1;durP2;ratioP2;P2;SDS_P1;SDS_P2;PMS_P1;PMS_P2;Temp;Humidity;BMP_temperature;BMP_pressure;BME280_temperature;BME280_humidity;BME280_pressure;Samples;Min_cycle;Max_cycle;Signal;HPM_P1;HPM_P2
2024/01/22 00:01:27;;;;;;;4.80;3.17;;;7.60;92.30;;;;;;5073318;28;20039;-43
2024/01/22 00:03:53;;;;;;;4.22;2.67;;;7.60;92.40;;;;;;5073086;28;20040;-44
2024/01/22 00:06:19;;;;;;;3.83;2.60;;;7.60;92.40;;;;;;5073519;28;20031;-43
2024/01/22 00:08:44;;;;;;;3.38;2.45;;;7.50;92.40;;;;;;5072859;28;20479;-44
2024/01/22 00:11:11;;;;;;;4.18;2.50;;;7.60;92.40;;;;;;5072980;28;20036;-44
2024/01/22 00:13:37;;;;;;;3.60;2.25;;;7.50;92.40;;;;;;5072977;28;20115;-44
2024/01/22 00:16:03;;;;;;;3.20;2.53;;;7.50;92.40;;;;;;5072625;28;20065;-44
2024/01/22 00:18:28;;;;;;;3.50;2.50;;;7.50;92.40;;;;;;5072689;28;20428;-43
2024/01/22 00:20:54;;;;;;;3.38;2.40;;;7.50;92.50;;;;;;5073046;28;20029;-43
2024/01/22 00:23:20;;;;;;;2.83;2.15;;;7.50;92.50;;;;;;5072712;28;20016;-44
2024/01/22 00:25:45;;;;;;;3.65;2.40;;;7.50;92.50;;;;;;5072987;28;20478;-44
2024/01/22 00:28:11;;;;;;;3.38;2.22;;;7.50;92.50;;;;;;5072433;28;20115;-44
2024/01/22 00:30:36;;;;;;;3.08;2.22;;;7.50;92.50;;;;;;5072439;28;20097;-43
2024/01/22 00:33:02;;;;;;;4.88;2.50;;;7.50;92.50;;;;;;5071290;28;20492;-44
2024/01/22 00:35:28;;;;;;;3.75;2.40;;;7.50;92.50;;;;;;5072725;28;20039;-43
2024/01/22 00:37:54;;;;;;;3.85;2.25;;;7.50;92.50;;;;;;5072365;28;20020;-44
2024/01/22 00:40:19;;;;;;;3.65;2.30;;;7.50;92.60;;;;;;5072282;28;20025;-43
2024/01/22 00:42:45;;;;;;;2.78;2.15;;;7.50;92.60;;;;;;5070853;28;20068;-44
2024/01/22 00:45:11;;;;;;;3.92;2.42;;;7.50;92.60;;;;;;5072076;28;20047;-44
2024/01/22 00:47:36;;;;;;;4.70;2.50;;;7.40;92.60;;;;;;5072798;28;20029;-44
2024/01/22 00:50:03;;;;;;;3.72;2.30;;;7.40;92.60;;;;;;5073209;28;20478;-43
2024/01/22 00:52:29;;;;;;;5.22;2.58;;;7.40;92.60;;;;;;5072682;28;20095;-44
2024/01/22 00:54:54;;;;;;;3.65;2.30;;;7.40;92.60;;;;;;5072013;28;20120;-43
2024/01/22 00:57:20;;;;;;;5.43;2.50;;;7.40;92.60;;;;;;5071979;28;20542;-44
2024/01/22 00:59:46;;;;;;;3.75;2.30;;;7.40;93.00;;;;;;5071702;28;20025;-44
2024/01/22 01:02:12;;;;;;;3.65;2.10;;;7.40;92.70;;;;;;5071962;28;20025;-43
2024/01/22 01:04:37;;;;;;;2.80;2.17;;;7.40;92.70;;;;;;5071825;28;20024;-45
2024/01/22 01:07:03;;;;;;;2.67;2.03;;;7.40;92.70;;;;;;5071870;28;20195;-43
2024/01/22 01:09:29;;;;;;;3.60;2.15;;;7.40;92.70;;;;;;5072138;28;20467;-42
2024/01/22 01:11:54;;;;;;;3.58;2.15;;;7.40;92.70;;;;;;5071780;28;20024;-44
2024/01/22 01:14:20;;;;;;;3.60;2.50;;;7.40;92.80;;;;;;5072003;28;20044;-44
2024/01/22 01:16:45;;;;;;;4.18;2.55;;;7.40;92.80;;;;;;5071712;28;20501;-44
2024/01/22 01:19:11;;;;;;;3.70;2.10;;;7.40;92.80;;;;;;5071535;28;20032;-44
2024/01/22 01:21:40;;;;;;;4.55;2.38;;;7.40;92.80;;;;;;5071611;28;20055;-44
2024/01/22 01:24:07;;;;;;;3.70;2.35;;;7.40;92.80;;;;;;5071432;28;20032;-43
2024/01/22 01:26:32;;;;;;;3.33;2.33;;;7.40;92.80;;;;;;5072223;28;20039;-43
2024/01/22 01:28:58;;;;;;;3.97;2.10;;;7.30;92.80;;;;;;5071243;28;20037;-44
2024/01/22 01:31:28;;;;;;;2.75;2.03;;;7.30;92.80;;;;;;5071715;28;20409;-44
2024/01/22 01:33:54;;;;;;;2.95;1.90;;;7.30;92.80;;;;;;5071421;28;20048;-44
2024/01/22 01:36:19;;;;;;;2.92;1.90;;;7.30;92.90;;;;;;5071751;28;20055;-43
2024/01/22 01:38:45;;;;;;;2.38;1.70;;;7.30;92.90;;;;;;5071808;28;20532;-44
2024/01/22 01:41:10;;;;;;;3.05;1.92;;;7.30;92.90;;;;;;5071402;28;20036;-43
2024/01/22 01:43:36;;;;;;;2.67;2.20;;;7.30;92.90;;;;;;5071124;28;20498;-44
2024/01/22 01:46:02;;;;;;;2.95;1.92;;;7.30;92.90;;;;;;5071316;28;20028;-44
2024/01/22 01:48:28;;;;;;;3.13;1.80;;;7.30;92.90;;;;;;5071131;28;20099;-44
2024/01/22 01:50:56;;;;;;;3.72;2.28;;;7.30;92.90;;;;;;5071284;28;20052;-43
2024/01/22 01:53:22;;;;;;;4.05;1.85;;;7.30;92.90;;;;;;5071385;28;20070;-44
2024/01/22 01:55:49;;;;;;;3.97;1.98;;;7.30;92.90;;;;;;5071101;28;20421;-44
2024/01/22 01:58:17;;;;;;;2.83;1.63;;;7.30;93.00;;;;;;5071099;28;20032;-44
2024/01/22 02:00:49;;;;;;;2.88;1.92;;;7.30;93.00;;;;;;5071268;28;20032;-43
2024/01/22 02:03:15;;;;;;;3.42;1.88;;;7.30;93.00;;;;;;5071650;28;20044;-44
2024/01/22 02:05:41;;;;;;;3.67;1.85;;;7.30;93.00;;;;;;5071236;28;20048;-44
2024/01/22 02:08:07;;;;;;;2.95;2.00;;;7.30;93.00;;;;;;5070911;28;20486;-43
2024/01/22 02:10:32;;;;;;;4.47;2.30;;;7.30;93.00;;;;;;5070981;28;20021;-42
2024/01/22 02:12:58;;;;;;;4.18;2.10;;;7.30;93.00;;;;;;5071466;28;20052;-43
2024/01/22 02:15:24;;;;;;;3.53;2.20;;;7.30;93.00;;;;;;5071002;28;20024;-43
2024/01/22 02:17:49;;;;;;;2.90;1.90;;;7.30;93.10;;;;;;5070966;28;20025;-44
2024/01/22 02:20:15;;;;;;;2.53;1.83;;;7.20;93.00;;;;;;5070907;28;20038;-44
2024/01/22 02:22:40;;;;;;;3.03;1.90;;;7.20;93.10;;;;;;5070855;28;20028;-44
2024/01/22 02:25:06;;;;;;;3.33;2.10;;;7.30;93.10;;;;;;5070645;28;20032;-43
2024/01/22 02:27:32;;;;;;;2.20;1.70;;;7.20;93.10;;;;;;5070748;28;20032;-44
2024/01/22 02:29:58;;;;;;;2.95;2.00;;;7.20;93.10;;;;;;5070999;28;20494;-43
2024/01/22 02:32:23;;;;;;;2.78;1.88;;;7.20;93.10;;;;;;5071480;28;20090;-44
2024/01/22 02:34:49;;;;;;;2.15;1.67;;;7.20;93.10;;;;;;5070803;28;20035;-44
2024/01/22 02:37:15;;;;;;;4.05;2.15;;;7.20;93.10;;;;;;5071392;28;20016;-42
2024/01/22 02:39:41;;;;;;;2.55;1.75;;;7.20;93.10;;;;;;5075143;28;20081;-44
2024/01/22 02:42:07;;;;;;;3.13;1.92;;;7.20;93.10;;;;;;5075099;28;20031;-44
2024/01/22 02:44:35;;;;;;;2.92;2.00;;;7.20;93.20;;;;;;5074492;28;20103;-43
2024/01/22 02:47:02;;;;;;;3.10;1.90;;;7.20;93.20;;;;;;5074468;28;20086;-44
2024/01/22 02:49:27;;;;;;;4.05;2.38;;;7.20;93.20;;;;;;5074316;28;20028;-44
2024/01/22 02:51:53;;;;;;;3.45;2.05;;;7.20;93.20;;;;;;5074452;28;20024;-43
2024/01/22 02:54:19;;;;;;;2.97;2.03;;;7.20;93.20;;;;;;5074908;28;20028;-43
2024/01/22 02:56:44;;;;;;;1.85;1.50;;;7.20;93.20;;;;;;5075171;28;20024;-44
2024/01/22 02:59:10;;;;;;;3.08;1.98;;;7.20;93.20;;;;;;5074856;28;20029;-44
2024/01/22 03:01:36;;;;;;;3.03;1.83;;;7.20;93.20;;;;;;5074415;28;20036;-43
2024/01/22 03:04:01;;;;;;;3.65;1.88;;;7.20;93.30;;;;;;5074614;28;20413;-44
2024/01/22 03:06:27;;;;;;;4.22;2.10;;;7.20;93.30;;;;;;5074109;28;20024;-43
2024/01/22 03:08:52;;;;;;;3.63;2.00;;;7.20;93.30;;;;;;5073850;28;20028;-44
2024/01/22 03:11:18;;;;;;;4.18;1.92;;;7.20;93.30;;;;;;5074057;28;20142;-43
2024/01/22 03:13:44;;;;;;;3.30;1.92;;;7.20;93.30;;;;;;5073945;28;20458;-44
2024/01/22 03:16:09;;;;;;;3.58;1.88;;;7.20;93.30;;;;;;5073886;28;20025;-43
2024/01/22 03:18:35;;;;;;;3.92;2.15;;;7.20;93.30;;;;;;5073871;28;20029;-44
2024/01/22 03:21:04;;;;;;;1.98;1.48;;;7.20;93.30;;;;;;5074815;28;20471;-44
2024/01/22 03:23:30;;;;;;;2.55;1.83;;;7.20;93.40;;;;;;5073717;28;20024;-43
2024/01/22 03:25:56;;;;;;;2.97;1.75;;;7.20;93.40;;;;;;5072452;28;20044;-44
2024/01/22 03:28:22;;;;;;;3.40;2.08;;;7.20;93.40;;;;;;5073567;28;20399;-44
2024/01/22 03:30:48;;;;;;;3.25;2.05;;;7.10;93.40;;;;;;5074435;28;20027;-43
2024/01/22 03:33:14;;;;;;;2.40;1.70;;;7.10;93.40;;;;;;5073637;28;20017;-44
2024/01/22 03:35:40;;;;;;;3.03;1.98;;;7.10;93.40;;;;;;5074262;28;20082;-44
2024/01/22 03:38:05;;;;;;;3.97;2.33;;;7.10;93.40;;;;;;5073443;28;20548;-44
2024/01/22 03:40:31;;;;;;;3.30;1.73;;;7.10;93.40;;;;;;5073512;28;20021;-43
2024/01/22 03:42:56;;;;;;;2.40;1.85;;;7.10;93.40;;;;;;5073644;28;20089;-44
2024/01/22 03:45:22;;;;;;;3.50;1.85;;;7.10;93.40;;;;;;5073456;28;20024;-43
2024/01/22 03:47:48;;;;;;;3.20;1.98;;;7.10;93.40;;;;;;5073282;28;20024;-44
2024/01/22 03:50:13;;;;;;;3.30;1.70;;;7.10;93.40;;;;;;5072225;28;20693;-43
2024/01/22 03:52:39;;;;;;;3.60;2.15;;;7.10;93.50;;;;;;5073228;28;20119;-44
2024/01/22 03:55:05;;;;;;;2.85;1.80;;;7.10;93.50;;;;;;5073476;28;20025;-43
2024/01/22 03:57:31;;;;;;;3.22;2.10;;;7.20;93.50;;;;;;5073807;28;20021;-43
2024/01/22 03:59:56;;;;;;;3.75;2.25;;;7.10;93.50;;;;;;5073444;28;20531;-44
2024/01/22 04:02:22;;;;;;;2.70;2.00;;;7.10;93.50;;;;;;5073553;28;20031;-43
2024/01/22 04:04:50;;;;;;;3.20;2.10;;;7.10;93.50;;;;;;5073708;28;20033;-43
2024/01/22 04:07:15;;;;;;;2.65;1.90;;;7.10;93.50;;;;;;5073274;28;20425;-44
2024/01/22 04:09:41;;;;;;;3.22;1.98;;;7.10;93.50;;;;;;5073250;28;20073;-44
2024/01/22 04:12:07;;;;;;;2.47;2.05;;;7.10;93.50;;;;;;5073495;28;20528;-44
2024/01/22 04:14:32;;;;;;;3.35;2.05;;;7.10;93.50;;;;;;5073031;28;20516;-44
2024/01/22 04:16:58;;;;;;;3.30;2.10;;;7.10;93.50;;;;;;5072806;28;20055;-44
2024/01/22 04:19:23;;;;;;;2.45;1.65;;;7.10;93.60;;;;;;5072669;28;20401;-44
2024/01/22 04:21:49;;;;;;;2.30;1.73;;;7.10;93.60;;;;;;5072618;28;20039;-44
2024/01/22 04:24:15;;;;;;;2.97;1.98;;;7.10;93.60;;;;;;5072517;28;20047;-44
2024/01/22 04:26:40;;;;;;;3.28;2.28;;;7.10;93.60;;;;;;5072744;28;20044;-44
2024/01/22 04:29:07;;;;;;;2.80;2.08;;;7.10;93.60;;;;;;5072862;28;20024;-44
2024/01/22 04:31:32;;;;;;;3.35;2.00;;;7.10;93.60;;;;;;5073599;28;20024;-44
2024/01/22 04:33:58;;;;;;;3.10;2.17;;;7.10;93.60;;;;;;5073738;28;20066;-44
2024/01/22 04:36:23;;;;;;;3.25;2.08;;;7.10;93.60;;;;;;5072648;28;20024;-44
2024/01/22 04:38:51;;;;;;;2.85;2.10;;;7.10;93.60;;;;;;5072251;28;20077;-43
2024/01/22 04:41:16;;;;;;;4.55;2.28;;;7.10;93.60;;;;;;5072394;28;20108;-43
2024/01/22 04:43:42;;;;;;;3.67;2.17;;;7.10;93.60;;;;;;5072260;28;20111;-43
2024/01/22 04:46:08;;;;;;;2.72;2.08;;;7.10;93.60;;;;;;5072596;28;20021;-44
2024/01/22 04:48:34;;;;;;;3.40;2.10;;;7.10;93.60;;;;;;5072103;28;20489;-43
2024/01/22 04:50:59;;;;;;;2.65;2.05;;;7.10;93.60;;;;;;5072645;28;20029;-44
2024/01/22 04:53:25;;;;;;;4.60;2.38;;;7.10;93.60;;;;;;5072047;28;20077;-43
2024/01/22 04:55:50;;;;;;;3.38;2.10;;;7.10;93.60;;;;;;5072232;28;20024;-44
2024/01/22 04:58:16;;;;;;;3.63;2.10;;;7.00;93.60;;;;;;5071918;28;20460;-43
2024/01/22 05:00:42;;;;;;;3.70;2.50;;;7.10;93.70;;;;;;5071666;28;20025;-44
2024/01/22 05:03:07;;;;;;;2.90;2.25;;;7.10;93.70;;;;;;5072937;28;20032;-44
2024/01/22 05:05:34;;;;;;;5.13;2.40;;;7.10;93.70;;;;;;5071770;28;20027;-44
2024/01/22 05:08:00;;;;;;;3.63;2.42;;;7.10;93.70;;;;;;5071673;28;20118;-44
2024/01/22 05:10:26;;;;;;;3.45;2.30;;;7.00;93.70;;;;;;5071742;28;20025;-44
2024/01/22 05:12:52;;;;;;;3.15;2.13;;;7.00;93.70;;;;;;5071805;28;20025;-44
2024/01/22 05:15:17;;;;;;;3.03;2.20;;;7.10;93.70;;;;;;5072072;28;20039;-44
2024/01/22 05:17:43;;;;;;;3.75;2.42;;;7.10;93.70;;;;;;5071720;28;20028;-43
2024/01/22 05:20:09;;;;;;;4.75;2.30;;;7.00;93.70;;;;;;5071472;28;20036;-44
2024/01/22 05:22:36;;;;;;;4.03;2.15;;;7.00;93.70;;;;;;5071722;28;20032;-44
2024/01/22 05:25:01;;;;;;;3.88;2.50;;;7.00;93.70;;;;;;5071711;28;20060;-43
2024/01/22 05:27:29;;;;;;;4.70;2.40;;;7.00;93.70;;;;;;5071704;28;20063;-43
2024/01/22 05:29:54;;;;;;;3.13;2.20;;;7.00;93.70;;;;;;5071510;28;20045;-44
2024/01/22 05:32:20;;;;;;;3.22;2.33;;;7.00;93.80;;;;;;5071521;28;20533;-43
2024/01/22 05:34:46;;;;;;;5.30;2.15;;;7.00;93.80;;;;;;5072397;28;20020;-42
2024/01/22 05:37:11;;;;;;;4.85;2.55;;;7.00;93.80;;;;;;5071872;28;20021;-44
2024/01/22 05:39:37;;;;;;;3.58;2.28;;;7.00;94.00;;;;;;5072400;28;20351;-44
2024/01/22 05:42:06;;;;;;;4.47;2.20;;;7.00;93.80;;;;;;5071402;28;20017;-44
2024/01/22 05:44:32;;;;;;;3.70;2.75;;;7.00;93.80;;;;;;5071286;28;20485;-44
2024/01/22 05:46:57;;;;;;;6.63;3.97;;;7.00;93.80;;;;;;5071234;28;20016;-44
2024/01/22 05:49:23;;;;;;;7.40;4.22;;;7.00;93.60;;;;;;5070990;28;20533;-43
2024/01/22 05:51:49;;;;;;;7.93;4.82;;;7.00;93.50;;;;;;5071788;28;20027;-43
2024/01/22 05:54:15;;;;;;;6.47;4.47;;;7.00;93.50;;;;;;5071781;28;20021;-42
2024/01/22 05:56:41;;;;;;;6.53;4.10;;;7.00;93.40;;;;;;5071160;28;20490;-43
2024/01/22 05:59:06;;;;;;;7.70;4.43;;;7.00;93.40;;;;;;5071465;28;20043;-43
2024/01/22 06:01:32;;;;;;;7.15;4.32;;;7.00;93.50;;;;;;5071532;28;20024;-44
2024/01/22 06:03:58;;;;;;;6.35;4.22;;;7.00;93.50;;;;;;5071317;28;20032;-43
2024/01/22 06:06:24;;;;;;;7.28;4.10;;;7.00;93.50;;;;;;5070973;28;20024;-43
2024/01/22 06:08:50;;;;;;;8.15;4.72;;;7.00;93.50;;;;;;5070900;28;20020;-43
2024/01/22 06:11:19;;;;;;;6.30;4.03;;;7.00;93.60;;;;;;5071521;28;20027;-43
2024/01/22 06:13:45;;;;;;;6.03;4.13;;;7.00;93.60;;;;;;5074624;28;20020;-41
2024/01/22 06:16:14;;;;;;;5.57;4.00;;;7.00;93.60;;;;;;5075770;28;20036;-43
2024/01/22 06:18:41;;;;;;;7.55;4.03;;;7.00;93.60;;;;;;5075055;28;20036;-38
2024/01/22 06:21:08;;;;;;;6.18;4.10;;;7.00;93.60;;;;;;5075321;28;20086;-43
2024/01/22 06:23:34;;;;;;;5.38;4.25;;;6.90;93.60;;;;;;5075238;28;20381;-44
2024/01/22 06:26:01;;;;;;;7.18;3.80;;;7.00;93.70;;;;;;5075724;28;20028;-43
2024/01/22 06:28:28;;;;;;;5.30;3.95;;;6.90;93.60;;;;;;5075338;28;20040;-43
2024/01/22 06:30:53;;;;;;;7.78;4.20;;;7.00;93.70;;;;;;5075353;28;20107;-42
2024/01/22 06:33:20;;;;;;;5.00;3.75;;;7.00;93.70;;;;;;5074779;28;20107;-41
2024/01/22 06:35:47;;;;;;;5.25;3.60;;;7.00;93.70;;;;;;5074703;28;20024;-43
2024/01/22 06:38:13;;;;;;;5.75;3.88;;;7.00;93.70;;;;;;5074630;28;20032;-43
2024/01/22 06:40:38;;;;;;;5.97;3.60;;;7.00;93.80;;;;;;5074716;28;20036;-43
2024/01/22 06:43:04;;;;;;;6.25;3.90;;;6.90;93.70;;;;;;5075257;28;20028;-41
2024/01/22 06:45:30;;;;;;;6.47;4.22;;;7.00;93.80;;;;;;5075032;28;20032;-43
2024/01/22 06:47:56;;;;;;;4.30;3.58;;;6.90;93.80;;;;;;5074541;28;20095;-44
2024/01/22 06:50:23;;;;;;;5.28;3.80;;;7.00;93.80;;;;;;5073765;28;20029;-44
2024/01/22 06:52:49;;;;;;;4.38;3.35;;;7.00;93.80;;;;;;5074435;28;20044;-44
2024/01/22 06:55:15;;;;;;;5.35;3.38;;;6.90;93.80;;;;;;5074400;28;20032;-43
2024/01/22 06:57:41;;;;;;;5.35;3.15;;;7.00;93.80;;;;;;5074309;28;20024;-42
2024/01/22 07:00:07;;;;;;;5.53;3.72;;;7.00;93.80;;;;;;5074526;28;20111;-40
2024/01/22 07:02:41;;;;;;;5.18;3.10;;;7.00;93.80;;;;;;5074525;28;20395;-40
2024/01/22 07:05:08;;;;;;;5.13;3.38;;;6.90;93.80;;;;;;5074340;28;20036;-44
2024/01/22 07:07:34;;;;;;;5.10;3.40;;;7.00;93.90;;;;;;5074671;28;20029;-44
2024/01/22 07:09:59;;;;;;;4.18;2.90;;;7.00;94.20;;;;;;5074164;28;20029;-40
2024/01/22 07:12:25;;;;;;;4.00;3.05;;;7.00;93.90;;;;;;5074093;28;20078;-43
2024/01/22 07:14:51;;;;;;;3.75;2.85;;;7.00;94.00;;;;;;5073890;28;20024;-42
2024/01/22 07:17:19;;;;;;;5.95;3.10;;;6.90;94.00;;;;;;5074834;28;20087;-44
2024/01/22 07:19:44;;;;;;;5.75;3.38;;;7.00;94.10;;;;;;5073863;28;20397;-43
2024/01/22 07:22:10;;;;;;;4.63;2.90;;;7.00;94.10;;;;;;5073992;28;20017;-41
2024/01/22 07:24:36;;;;;;;4.85;2.90;;;7.00;94.10;;;;;;5073538;28;20512;-43
2024/01/22 07:27:02;;;;;;;4.05;2.90;;;7.00;94.10;;;;;;5073747;28;20021;-44
2024/01/22 07:29:28;;;;;;;4.32;2.83;;;7.00;94.10;;;;;;5073859;28;20036;-43
2024/01/22 07:31:53;;;;;;;5.07;2.83;;;7.00;94.10;;;;;;5073957;28;20133;-42
2024/01/22 07:34:20;;;;;;;3.95;2.40;;;7.10;94.30;;;;;;5074816;28;20461;-44
2024/01/22 07:36:45;;;;;;;4.20;2.80;;;7.10;94.10;;;;;;5073471;28;20078;-42
2024/01/22 07:39:12;;;;;;;4.70;2.40;;;7.10;94.10;;;;;;5073616;28;20036;-43
2024/01/22 07:41:38;;;;;;;4.70;2.63;;;7.10;94.10;;;;;;5073635;28;20055;-43
2024/01/22 07:44:05;;;;;;;3.97;2.60;;;7.20;94.10;;;;;;5073538;28;20589;-44
2024/01/22 07:46:31;;;;;;;3.90;2.45;;;7.20;94.10;;;;;;5073499;28;20032;-42
2024/01/22 07:49:00;;;;;;;3.83;2.40;;;7.30;94.10;;;;;;5073234;28;20036;-43
2024/01/22 07:51:25;;;;;;;4.00;2.20;;;7.30;94.00;;;;;;5073348;28;20486;-41
2024/01/22 07:53:51;;;;;;;3.83;2.20;;;7.30;94.00;;;;;;5073877;28;20021;-43
2024/01/22 07:56:17;;;;;;;3.70;2.20;;;7.40;94.00;;;;;;5073257;28;20055;-44
2024/01/22 07:58:44;;;;;;;3.10;2.20;;;7.40;94.00;;;;;;5073533;28;20510;-43
2024/01/22 08:01:09;;;;;;;3.50;2.15;;;7.50;94.00;;;;;;5073292;28;20033;-43
2024/01/22 08:03:35;;;;;;;2.50;1.80;;;7.50;93.90;;;;;;5073094;28;20070;-44
2024/01/22 08:06:01;;;;;;;3.05;1.92;;;7.60;93.90;;;;;;5073532;28;20032;-44
2024/01/22 08:08:28;;;;;;;2.83;1.90;;;7.60;93.90;;;;;;5075515;28;20021;-44
2024/01/22 08:10:54;;;;;;;3.38;1.88;;;7.70;93.80;;;;;;5073464;28;20042;-42
2024/01/22 08:13:20;;;;;;;2.88;1.80;;;7.70;94.10;;;;;;5073165;28;20390;-43
2024/01/22 08:15:49;;;;;;;2.38;1.70;;;7.80;93.80;;;;;;5072932;28;20052;-40
2024/01/22 08:18:15;;;;;;;3.08;1.88;;;7.80;93.70;;;;;;5072568;28;20504;-38
2024/01/22 08:20:41;;;;;;;6.00;1.60;;;7.80;93.70;;;;;;5072738;28;20032;-44
2024/01/22 08:23:07;;;;;;;2.35;1.20;;;7.80;93.80;;;;;;5072726;28;20020;-39
2024/01/22 08:25:33;;;;;;;2.35;1.00;;;8.00;93.90;;;;;;5073883;28;20036;-40
2024/01/22 08:28:00;;;;;;;3.72;1.17;;;8.10;94.00;;;;;;5074611;28;20550;-43
2024/01/22 08:30:26;;;;;;;1.83;0.88;;;8.10;94.00;;;;;;5073004;28;20027;-40
2024/01/22 08:32:52;;;;;;;1.52;0.80;;;8.20;94.00;;;;;;5073737;28;20516;-43
2024/01/22 08:35:19;;;;;;;0.95;0.70;;;8.30;93.90;;;;;;5072109;28;20036;-43
2024/01/22 08:37:52;;;;;;;1.20;0.77;;;8.30;93.80;;;;;;5072626;28;20099;-43
2024/01/22 08:40:21;;;;;;;1.27;0.95;;;8.40;93.80;;;;;;5073126;28;20040;-43
2024/01/22 08:42:52;;;;;;;1.23;0.70;;;8.40;93.70;;;;;;5072468;28;20107;-40
2024/01/22 08:45:19;;;;;;;1.55;1.00;;;8.50;93.60;;;;;;5072273;28;20029;-43
2024/01/22 08:47:45;;;;;;;1.05;0.70;;;8.60;93.60;;;;;;5072082;28;20074;-40
2024/01/22 08:50:23;;;;;;;1.67;0.65;;;8.70;93.50;;;;;;5072767;28;20031;-43
2024/01/22 08:52:50;;;;;;;2.10;0.98;;;8.70;93.40;;;;;;5072745;28;20032;-44
2024/01/22 08:55:16;;;;;;;1.35;0.70;;;8.80;93.40;;;;;;5073094;28;20436;-41
2024/01/22 08:57:43;;;;;;;1.05;0.68;;;8.80;93.30;;;;;;5072450;28;20489;-42
2024/01/22 09:00:13;;;;;;;1.00;0.60;;;8.90;93.20;;;;;;5072041;28;20393;-44
2024/01/22 09:02:42;;;;;;;1.15;0.80;;;8.90;93.20;;;;;;5071967;28;20482;-43
2024/01/22 09:05:08;;;;;;;1.02;0.70;;;9.00;93.10;;;;;;5072168;28;20154;-42
2024/01/22 09:07:35;;;;;;;1.73;0.70;;;9.10;93.10;;;;;;5071801;28;20492;-43
2024/01/22 09:10:03;;;;;;;1.52;0.50;;;9.10;93.00;;;;;;5071750;28;20031;-40
2024/01/22 09:12:29;;;;;;;2.08;0.80;;;9.10;92.90;;;;;;5072021;28;20017;-44
2024/01/22 09:14:55;;;;;;;1.42;0.57;;;9.20;92.90;;;;;;5072580;28;20025;-44
2024/01/22 09:17:20;;;;;;;2.33;0.70;;;9.20;92.80;;;;;;5072094;28;20028;-42
2024/01/22 09:19:46;;;;;;;0.98;0.60;;;9.30;92.80;;;;;;5071577;28;20103;-43
2024/01/22 09:22:11;;;;;;;1.30;0.73;;;9.30;93.10;;;;;;5071705;28;20052;-41
2024/01/22 09:24:37;;;;;;;0.60;0.55;;;9.40;92.70;;;;;;5071293;28;20123;-43
2024/01/22 09:27:03;;;;;;;1.10;0.60;;;9.50;92.70;;;;;;5071739;28;20017;-43
2024/01/22 09:29:28;;;;;;;0.65;0.55;;;9.50;92.60;;;;;;5071620;28;20556;-43
2024/01/22 09:31:54;;;;;;;0.88;0.63;;;9.60;92.60;;;;;;5072129;28;20036;-44
2024/01/22 09:34:20;;;;;;;1.00;0.60;;;9.60;92.50;;;;;;5071305;28;20017;-43
2024/01/22 09:36:45;;;;;;;0.70;0.50;;;9.70;92.50;;;;;;5071328;28;20100;-44
2024/01/22 09:39:11;;;;;;;1.13;0.60;;;9.70;92.40;;;;;;5071656;28;20042;-43
2024/01/22 09:41:37;;;;;;;0.75;0.55;;;9.80;92.30;;;;;;5071461;28;20032;-43
2024/01/22 09:44:06;;;;;;;0.55;0.40;;;9.80;92.30;;;;;;5071616;28;20029;-43
2024/01/22 09:46:33;;;;;;;0.55;0.43;;;9.90;92.20;;;;;;5070758;28;20102;-43
2024/01/22 09:48:59;;;;;;;1.05;0.55;;;9.90;92.10;;;;;;5070876;28;20103;-43
2024/01/22 09:51:26;;;;;;;0.90;0.50;;;10.00;92.10;;;;;;5071218;28;20107;-43
2024/01/22 09:53:57;;;;;;;1.20;0.60;;;10.10;92.00;;;;;;5071234;28;20066;-43
2024/01/22 09:56:26;;;;;;;0.93;0.50;;;10.10;91.90;;;;;;5071223;28;20016;-43
2024/01/22 09:58:58;;;;;;;0.90;0.45;;;10.20;91.90;;;;;;5071148;28;20056;-43
2024/01/22 10:01:24;;;;;;;2.38;0.60;;;10.20;91.80;;;;;;5071257;28;20078;-39
2024/01/22 10:03:50;;;;;;;1.17;0.63;;;10.30;91.80;;;;;;5071077;28;20024;-43
2024/01/22 10:06:16;;;;;;;1.15;0.60;;;10.40;91.70;;;;;;5071589;28;20033;-40
2024/01/22 10:08:41;;;;;;;0.70;0.40;;;10.40;91.60;;;;;;5071015;28;20103;-43
2024/01/22 10:11:07;;;;;;;1.20;0.65;;;10.50;91.50;;;;;;5071068;28;20024;-42
2024/01/22 10:13:49;;;;;;;0.80;0.50;;;10.50;91.50;;;;;;5071050;28;20025;-43
2024/01/22 10:16:14;;;;;;;0.65;0.50;;;10.60;91.40;;;;;;5070895;28;20024;-40
2024/01/22 10:18:55;;;;;;;0.52;0.35;;;10.70;91.30;;;;;;5070994;28;20055;-42
2024/01/22 10:21:21;;;;;;;0.80;0.43;;;10.70;91.20;;;;;;5071993;28;20025;-44
2024/01/22 10:24:15;;;;;;;1.27;0.50;;;10.70;91.10;;;;;;5070794;28;20035;-44
2024/01/22 10:26:41;;;;;;;0.93;0.50;;;10.80;91.10;;;;;;5066200;28;20041;-44
2024/01/22 10:29:17;;;;;;;0.77;0.50;;;10.80;91.00;;;;;;5071570;28;20032;-44
2024/01/22 10:31:56;;;;;;;0.95;0.50;;;10.90;91.00;;;;;;5070884;28;20020;-43
2024/01/22 10:34:29;;;;;;;0.98;0.50;;;10.90;90.90;;;;;;5070680;28;20024;-44
2024/01/22 10:37:08;;;;;;;1.05;0.43;;;11.00;90.80;;;;;;5072050;28;20029;-43
2024/01/22 10:39:34;;;;;;;0.90;0.50;;;11.00;90.80;;;;;;5070806;28;20028;-40
2024/01/22 10:42:14;;;;;;;0.45;0.40;;;11.10;90.70;;;;;;5071490;28;20033;-44
2024/01/22 10:44:41;;;;;;;0.90;0.50;;;11.20;90.60;;;;;;5070737;28;20104;-44
2024/01/22 10:47:09;;;;;;;0.55;0.45;;;11.20;90.60;;;;;;5070570;28;20029;-43
2024/01/22 10:49:35;;;;;;;0.77;0.40;;;11.20;90.50;;;;;;5070813;28;20016;-43
2024/01/22 10:52:02;;;;;;;0.70;0.32;;;11.30;90.50;;;;;;5071891;28;20508;-44
2024/01/22 10:54:29;;;;;;;0.82;0.40;;;11.30;90.40;;;;;;5070917;28;20398;-43
2024/01/22 10:57:04;;;;;;;0.50;0.40;;;11.30;90.40;;;;;;5071200;28;20025;-43
2024/01/22 10:59:38;;;;;;;0.50;0.40;;;11.40;90.30;;;;;;5073037;28;20021;-43
2024/01/22 11:02:12;;;;;;;0.90;0.63;;;11.40;90.30;;;;;;5075096;28;20028;-43
2024/01/22 11:04:44;;;;;;;0.90;0.45;;;11.50;90.20;;;;;;5074298;28;20040;-43
2024/01/22 11:07:11;;;;;;;0.28;0.20;;;11.50;90.20;;;;;;5074294;28;20429;-43
2024/01/22 11:09:39;;;;;;;0.93;0.40;;;11.50;90.20;;;;;;5074272;28;20504;-44
2024/01/22 11:12:08;;;;;;;1.02;0.40;;;11.60;90.10;;;;;;5074404;28;20471;-44
2024/01/22 11:14:35;;;;;;;0.38;0.20;;;11.60;90.10;;;;;;5074199;28;20538;-43
2024/01/22 11:17:02;;;;;;;0.82;0.40;;;11.60;90.00;;;;;;5074009;28;20028;-43
2024/01/22 11:19:28;;;;;;;1.92;0.50;;;11.70;90.00;;;;;;5074144;28;20107;-42
2024/01/22 11:21:54;;;;;;;0.20;0.20;;;11.70;89.90;;;;;;5074273;28;20632;-39
2024/01/22 11:24:20;;;;;;;0.95;0.50;;;11.70;89.80;;;;;;5072503;28;20040;-43
2024/01/22 11:26:51;;;;;;;0.32;0.30;;;11.80;89.70;;;;;;5074398;28;20398;-43
2024/01/22 11:29:26;;;;;;;0.57;0.35;;;11.80;89.70;;;;;;5075170;28;20046;-44
2024/01/22 11:31:52;;;;;;;;;;;11.80;90.10;;;;;;5074431;28;20028;-43
2024/01/22 11:34:39;;;;;;;0.60;0.40;;;11.80;89.50;;;;;;5074840;28;20293;-43
2024/01/22 11:37:05;;;;;;;0.50;0.30;;;11.80;89.50;;;;;;5073850;28;20069;-43
2024/01/22 11:39:35;;;;;;;0.43;0.30;;;11.90;89.60;;;;;;5073505;28;20025;-43
2024/01/22 11:42:22;;;;;;;0.68;0.40;;;11.80;89.60;;;;;;5073672;28;20021;-44
2024/01/22 11:44:49;;;;;;;0.40;0.20;;;11.80;89.60;;;;;;5073539;28;20103;-43
2024/01/22 11:47:16;;;;;;;0.90;0.47;;;11.80;89.70;;;;;;5074058;28;20028;-44
2024/01/22 11:49:42;;;;;;;0.50;0.30;;;11.80;90.10;;;;;;5073148;28;20025;-43
2024/01/22 11:52:18;;;;;;;0.95;0.40;;;11.80;89.70;;;;;;5073404;28;20612;-44
2024/01/22 11:54:59;;;;;;;0.38;0.20;;;11.80;89.60;;;;;;5073395;28;20025;-43
2024/01/22 11:57:26;;;;;;;0.40;0.20;;;11.90;89.70;;;;;;5073967;28;20107;-43
2024/01/22 12:00:11;;;;;;;0.95;0.60;;;11.90;89.60;;;;;;5073158;28;20024;-43
2024/01/22 12:02:41;;;;;;;0.40;0.30;;;11.90;89.50;;;;;;5073435;28;20024;-43
2024/01/22 12:05:12;;;;;;;0.32;0.25;;;11.90;89.50;;;;;;5073335;28;20063;-43
2024/01/22 12:07:40;;;;;;;1.48;0.32;;;11.90;89.40;;;;;;5073186;28;20016;-43
2024/01/22 12:10:22;;;;;;;0.75;0.40;;;12.00;89.40;;;;;;5070817;28;20081;-44
2024/01/22 12:12:49;;;;;;;0.65;0.50;;;12.00;89.40;;;;;;5073170;28;20412;-41
2024/01/22 12:15:15;;;;;;;2.35;0.40;;;12.00;89.30;;;;;;5073508;28;20074;-43
2024/01/22 12:17:43;;;;;;;0.75;0.30;;;12.00;89.30;;;;;;5073069;28;20056;-43
2024/01/22 12:20:10;;;;;;;0.88;0.30;;;12.00;89.20;;;;;;5072801;28;20117;-43
2024/01/22 12:22:35;;;;;;;0.40;0.30;;;12.10;89.20;;;;;;5072835;28;20082;-41
2024/01/22 12:25:02;;;;;;;0.43;0.30;;;12.10;89.20;;;;;;5071136;28;20436;-44
2024/01/22 12:27:28;;;;;;;0.30;0.30;;;12.10;89.20;;;;;;5072639;28;20100;-43
2024/01/22 12:30:08;;;;;;;0.15;0.15;;;12.10;89.10;;;;;;5072565;28;20053;-43
2024/01/22 12:32:35;;;;;;;1.00;0.40;;;12.10;89.10;;;;;;5072427;28;20066;-43
2024/01/22 12:35:02;;;;;;;1.30;0.50;;;12.10;89.10;;;;;;5072488;28;20035;-42
2024/01/22 12:37:33;;;;;;;0.28;0.20;;;12.10;89.10;;;;;;5073248;28;20370;-43
2024/01/22 12:40:28;;;;;;;0.80;0.40;;;12.10;89.10;;;;;;5072589;28;20036;-41
2024/01/22 12:42:59;;;;;;;0.68;0.40;;;12.10;89.00;;;;;;5066594;28;20032;-43
2024/01/22 12:45:25;;;;;;;0.70;0.30;;;12.10;89.00;;;;;;5072909;28;20035;-41
2024/01/22 12:47:50;;;;;;;0.60;0.40;;;12.20;89.00;;;;;;5072647;28;20025;-44
2024/01/22 12:50:20;;;;;;;0.30;0.20;;;12.20;89.00;;;;;;5072473;28;20024;-43
2024/01/22 12:52:46;;;;;;;0.73;0.40;;;12.20;89.00;;;;;;5072262;28;20035;-39
2024/01/22 12:55:14;;;;;;;0.28;0.25;;;12.20;89.00;;;;;;5072165;28;20398;-43